Time;durP1;ratioP1;P1;durP2;ratioP2;P2;SDS_P1;SDS_P2;PMS_P1;PMS_P2;Temp;Humidity;BMP_temperature;BMP_pressure;BME280_temperature;BME280_humidity;BME280_pressure;Samples;Min_cycle;Max_cycle;Signal;HPM_P1;HPM_P2
2023/10/09 00:03:55;;;;;;;8.63;3.57;;;4.10;99.90;;;;;;5978250;23;20200;-77
2023/10/09 00:06:38;;;;;;;7.53;3.67;;;4.10;99.90;;;;;;5979248;23;20203;-78
2023/10/09 00:12:01;;;;;;;5.93;3.20;;;4.00;99.90;;;;;;5982850;23;20652;-78
2023/10/09 00:14:40;;;;;;;11.90;4.10;;;4.10;99.90;;;;;;6006782;23;20202;-78
2023/10/09 00:19:51;;;;;;;9.43;3.70;;;3.90;99.90;;;;;;5983352;23;20280;-77
2023/10/09 00:27:46;;;;;;;7.60;3.20;;;4.10;99.90;;;;;;6006512;23;20180;-79
2023/10/09 00:30:29;;;;;;;7.13;3.43;;;3.90;99.90;;;;;;6006712;23;20197;-78
2023/10/09 00:33:11;;;;;;;6.60;3.40;;;4.20;99.90;;;;;;6006104;23;20509;-79
2023/10/09 00:38:33;;;;;;;8.43;3.90;;;4.30;99.90;;;;;;6006407;23;20167;-77
2023/10/09 00:41:10;;;;;;;6.53;3.27;;;4.30;99.90;;;;;;6073681;23;20182;-79
2023/10/09 00:43:43;;;;;;;8.40;3.73;;;4.00;99.90;;;;;;6122329;23;20177;-78
2023/10/09 00:48:53;;;;;;;6.63;3.27;;;4.00;99.90;;;;;;6124298;23;20171;-78
2023/10/09 00:51:24;;;;;;;7.87;3.37;;;4.00;99.90;;;;;;6147296;23;20182;-80
2023/10/09 00:53:58;;;;;;;5.90;3.30;;;4.10;99.90;;;;;;6124496;23;20247;-77
2023/10/09 00:56:43;;;;;;;6.93;3.43;;;4.00;99.90;;;;;;6122239;23;20193;-77
2023/10/09 01:03:28;;;;;;;9.93;3.00;;;4.00;99.90;;;;;;6083113;23;20168;-79
2023/10/09 01:11:23;;;;;;;6.93;3.00;;;4.10;99.90;;;;;;6127006;23;20173;-79
2023/10/09 01:13:59;;;;;;;6.70;3.20;;;3.90;99.90;;;;;;6152063;23;20182;-79
2023/10/09 01:16:42;;;;;;;6.53;3.00;;;4.20;99.90;;;;;;6126982;23;20558;-79
2023/10/09 01:19:27;;;;;;;7.07;3.17;;;3.90;99.90;;;;;;6151312;23;20171;-78
2023/10/09 01:22:12;;;;;;;6.33;2.90;;;4.00;99.90;;;;;;6128174;23;20223;-78
2023/10/09 01:24:55;;;;;;;6.40;2.90;;;4.20;99.90;;;;;;6131026;23;20194;-77
2023/10/09 01:27:40;;;;;;;5.77;3.00;;;3.70;99.90;;;;;;6152644;23;20196;-77
2023/10/09 01:30:16;;;;;;;7.27;2.90;;;3.80;99.90;;;;;;6153326;23;20557;-78
2023/10/09 01:32:47;;;;;;;7.53;3.27;;;4.00;99.90;;;;;;6153876;23;20169;-79
2023/10/09 01:35:21;;;;;;;7.13;2.97;;;4.00;99.90;;;;;;6151525;23;20169;-79
2023/10/09 01:37:56;;;;;;;7.50;3.40;;;3.90;99.90;;;;;;6127200;23;20197;-80
2023/10/09 01:40:36;;;;;;;7.10;3.30;;;3.70;99.90;;;;;;6153825;23;20165;-79
2023/10/09 01:43:09;;;;;;;8.77;3.63;;;3.80;99.90;;;;;;6129482;23;20195;-77
2023/10/09 01:45:46;;;;;;;6.93;3.17;;;4.10;99.90;;;;;;6063706;23;20175;-77
2023/10/09 01:48:23;;;;;;;5.53;3.10;;;4.20;99.90;;;;;;6041320;23;20343;-78
2023/10/09 01:50:51;;;;;;;7.40;3.20;;;3.90;99.90;;;;;;6065170;23;20571;-79
2023/10/09 01:53:27;;;;;;;7.30;3.00;;;3.90;99.90;;;;;;6065298;23;20224;-77
2023/10/09 01:55:55;;;;;;;5.43;2.70;;;3.90;99.90;;;;;;6040991;23;20218;-79
2023/10/09 01:58:32;;;;;;;8.77;2.70;;;3.90;99.90;;;;;;6064814;23;20176;-78
2023/10/09 02:01:06;;;;;;;7.53;2.80;;;4.00;99.90;;;;;;6064382;23;20257;-77
2023/10/09 02:03:38;;;;;;;7.37;3.00;;;4.00;99.90;;;;;;6076558;23;20236;-76
2023/10/09 02:06:32;;;;;;;6.73;2.90;;;3.90;99.90;;;;;;6154117;23;20206;-80
2023/10/09 02:09:06;;;;;;;7.80;2.97;;;3.70;99.90;;;;;;6155382;23;20179;-76
2023/10/09 02:11:41;;;;;;;6.37;2.97;;;3.60;99.90;;;;;;6129670;23;20634;-78
2023/10/09 02:14:26;;;;;;;6.07;3.07;;;3.70;99.90;;;;;;6129182;23;20181;-80
2023/10/09 02:17:09;;;;;;;5.67;2.90;;;3.80;99.90;;;;;;6128804;23;20197;-80
2023/10/09 02:19:40;;;;;;;5.80;2.83;;;3.80;99.90;;;;;;6154140;23;20172;-77
2023/10/09 02:22:17;;;;;;;5.80;3.07;;;3.80;99.90;;;;;;6155446;23;20187;-76
2023/10/09 02:24:50;;;;;;;6.60;3.30;;;3.90;99.90;;;;;;6151720;23;20192;-79
2023/10/09 02:27:44;;;;;;;6.00;2.80;;;3.90;99.90;;;;;;6127342;23;20250;-78
2023/10/09 02:30:34;;;;;;;7.43;3.00;;;3.90;99.90;;;;;;6153327;23;20169;-78
2023/10/09 02:33:11;;;;;;;4.77;2.80;;;3.70;99.90;;;;;;6153502;23;20168;-79
2023/10/09 02:35:44;;;;;;;5.70;3.50;;;3.90;99.90;;;;;;6154124;23;20199;-78
2023/10/09 02:38:17;;;;;;;7.83;3.07;;;3.80;99.90;;;;;;6154399;23;20191;-78
2023/10/09 02:41:49;;;;;;;6.10;3.00;;;3.90;99.90;;;;;;6152528;23;20153;-79
2023/10/09 02:44:11;;;;;;;5.90;2.97;;;3.60;99.90;;;;;;6126864;23;20170;-78
2023/10/09 02:46:34;;;;;;;5.10;2.87;;;3.60;99.90;;;;;;6155041;23;20169;-79
2023/10/09 02:49:34;;;;;;;4.70;2.80;;;3.60;99.90;;;;;;6152189;23;20265;-79
2023/10/09 02:52:07;;;;;;;6.27;3.10;;;3.70;99.90;;;;;;6155376;23;20184;-78
2023/10/09 02:54:41;;;;;;;7.40;3.07;;;3.90;99.90;;;;;;6154033;23;20164;-78
2023/10/09 02:57:15;;;;;;;8.23;3.10;;;3.60;99.90;;;;;;6127847;23;20335;-80
2023/10/09 02:59:52;;;;;;;6.13;3.10;;;3.70;99.90;;;;;;6152982;23;20200;-79
2023/10/09 03:02:31;;;;;;;7.17;2.80;;;3.70;99.90;;;;;;6128222;23;20172;-78
2023/10/09 03:05:05;;;;;;;10.90;3.20;;;3.60;99.90;;;;;;6154510;23;20622;-82
2023/10/09 03:07:39;;;;;;;5.27;2.70;;;3.50;99.90;;;;;;6153615;23;20804;-80
2023/10/09 03:10:10;;;;;;;6.47;2.80;;;3.70;99.90;;;;;;6155231;23;20169;-80
2023/10/09 03:12:51;;;;;;;5.80;2.90;;;3.70;99.90;;;;;;6153977;23;20176;-80
2023/10/09 03:15:35;;;;;;;6.77;3.00;;;3.60;99.90;;;;;;6152597;23;20316;-80
2023/10/09 03:18:14;;;;;;;5.17;3.10;;;3.50;99.90;;;;;;6130302;23;20192;-79
2023/10/09 03:20:47;;;;;;;8.07;3.00;;;3.50;99.90;;;;;;6155730;23;20189;-80
2023/10/09 03:23:15;;;;;;;8.57;3.37;;;3.60;99.90;;;;;;6154061;23;20176;-80
2023/10/09 03:25:45;;;;;;;5.63;3.00;;;3.50;99.90;;;;;;6128685;23;20200;-78
2023/10/09 03:28:21;;;;;;;6.47;3.40;;;3.70;99.90;;;;;;6154244;23;20203;-81
2023/10/09 03:30:53;;;;;;;8.40;3.17;;;3.50;99.90;;;;;;6129397;23;20500;-80
2023/10/09 03:33:26;;;;;;;7.13;3.43;;;3.70;99.90;;;;;;6128579;23;20200;-80
2023/10/09 03:36:01;;;;;;;7.47;3.17;;;3.60;99.90;;;;;;6128636;23;20205;-81
2023/10/09 03:38:40;;;;;;;6.90;3.63;;;3.90;99.90;;;;;;6129193;23;20197;-78
2023/10/09 03:41:17;;;;;;;6.50;3.27;;;3.70;99.90;;;;;;6128599;23;20487;-79
2023/10/09 03:43:53;;;;;;;6.77;3.27;;;3.70;99.90;;;;;;6153301;23;20164;-79
2023/10/09 03:46:32;;;;;;;6.63;3.40;;;3.70;99.90;;;;;;6128457;23;20505;-79
2023/10/09 03:49:10;;;;;;;7.00;3.07;;;3.70;99.90;;;;;;6153480;23;20176;-80
2023/10/09 03:51:41;;;;;;;7.20;3.23;;;3.60;99.90;;;;;;6152927;23;20204;-80
2023/10/09 03:54:13;;;;;;;6.73;3.13;;;3.80;99.90;;;;;;6153942;23;20194;-79
2023/10/09 03:56:44;;;;;;;5.67;2.90;;;4.00;99.90;;;;;;6154533;23;20171;-78
2023/10/09 03:59:21;;;;;;;6.67;3.40;;;4.00;99.90;;;;;;6128770;23;20251;-78
2023/10/09 04:01:52;;;;;;;5.90;3.10;;;3.80;99.90;;;;;;6104313;23;20164;-79
2023/10/09 04:04:23;;;;;;;7.00;3.23;;;3.90;99.90;;;;;;6155024;23;20155;-80
2023/10/09 04:06:54;;;;;;;6.40;3.60;;;4.20;99.90;;;;;;6126203;23;20269;-79
2023/10/09 04:12:19;;;;;;;8.13;3.40;;;4.10;99.90;;;;;;6128264;23;20184;-80
2023/10/09 04:15:05;;;;;;;7.17;3.27;;;3.90;99.90;;;;;;6105868;23;20511;-80
2023/10/09 04:17:34;;;;;;;7.07;3.33;;;3.90;99.90;;;;;;6154126;23;20195;-80
2023/10/09 04:23:05;;;;;;;7.73;3.40;;;4.00;99.90;;;;;;6154478;23;20228;-80
2023/10/09 04:25:57;;;;;;;7.93;3.13;;;4.00;99.90;;;;;;6154220;23;20170;-79
2023/10/09 04:28:24;;;;;;;7.10;3.80;;;4.10;99.90;;;;;;6154297;23;20158;-80
2023/10/09 04:30:55;;;;;;;7.43;3.77;;;4.00;99.90;;;;;;6151080;23;20540;-81
2023/10/09 04:33:40;;;;;;;5.87;3.40;;;4.00;99.90;;;;;;6127318;23;20265;-80
2023/10/09 04:36:45;;;;;;;7.80;3.50;;;4.10;99.90;;;;;;6152823;23;20187;-80
2023/10/09 04:44:24;;;;;;;8.37;3.30;;;4.20;99.90;;;;;;6154664;23;20162;-78
2023/10/09 04:55:24;;;;;;;6.00;3.13;;;4.30;99.90;;;;;;6153859;23;20164;-78
2023/10/09 04:58:01;;;;;;;8.47;3.20;;;4.40;99.90;;;;;;6128181;23;20204;-79
2023/10/09 05:03:10;;;;;;;6.43;3.03;;;4.50;99.90;;;;;;6154728;23;20188;-79
2023/10/09 05:08:29;;;;;;;6.70;3.20;;;4.40;99.90;;;;;;6153535;23;20195;-81
2023/10/09 05:11:15;;;;;;;6.53;3.10;;;4.40;99.90;;;;;;6152621;23;20474;-82
2023/10/09 05:14:11;;;;;;;7.10;3.40;;;4.60;99.90;;;;;;6129786;23;20195;-79
2023/10/09 05:16:54;;;;;;;10.10;2.93;;;4.60;99.90;;;;;;6126429;23;20647;-80
2023/10/09 05:19:42;;;;;;;5.93;2.73;;;4.30;99.90;;;;;;6106480;23;20229;-80
2023/10/09 05:22:29;;;;;;;7.87;3.00;;;4.50;99.90;;;;;;6154607;23;20290;-82
2023/10/09 05:25:14;;;;;;;6.93;3.43;;;4.40;99.90;;;;;;6106723;23;20166;-80
2023/10/09 05:27:50;;;;;;;7.23;3.13;;;4.40;99.90;;;;;;6130000;23;20171;-78
2023/10/09 05:30:26;;;;;;;6.37;3.20;;;4.60;99.90;;;;;;6129866;23;20607;-79
2023/10/09 05:33:27;;;;;;;5.43;3.23;;;4.70;99.90;;;;;;6156285;23;20175;-79
2023/10/09 05:36:14;;;;;;;7.07;3.20;;;4.60;99.90;;;;;;6156553;23;20281;-78
2023/10/09 05:38:58;;;;;;;6.77;2.83;;;4.70;99.90;;;;;;6129401;23;20197;-77
2023/10/09 05:41:47;;;;;;;6.57;3.13;;;4.70;99.90;;;;;;6129325;23;20205;-81
2023/10/09 05:45:30;;;;;;;4.50;2.80;;;4.80;99.90;;;;;;6155940;23;20231;-81
2023/10/09 05:47:47;;;;;;;5.17;2.93;;;4.60;99.90;;;;;;6130329;23;20206;-81
2023/10/09 06:03:16;;;;;;;7.27;3.00;;;4.90;99.90;;;;;;6129034;23;20175;-77
2023/10/09 06:04:15;;;;;;;7.03;3.37;;;5.00;99.90;;;;;;6153158;23;20165;-79
2023/10/09 06:07:12;;;;;;;7.40;3.10;;;4.70;99.90;;;;;;6129727;23;20611;-77
2023/10/09 06:12:33;;;;;;;6.90;2.97;;;5.10;99.90;;;;;;6127249;23;20168;-80
2023/10/09 06:18:25;;;;;;;7.50;3.07;;;5.10;99.90;;;;;;6154403;23;20176;-79
2023/10/09 06:26:24;;;;;;;6.47;3.10;;;5.30;99.90;;;;;;6129335;23;20243;-78
2023/10/09 06:29:14;;;;;;;6.77;2.80;;;5.20;99.90;;;;;;6155280;23;20199;-80
2023/10/09 06:32:20;;;;;;;8.53;3.33;;;5.40;99.90;;;;;;6129920;23;20175;-80
2023/10/09 06:35:16;;;;;;;4.77;2.50;;;5.20;99.90;;;;;;6155714;23;20171;-79
2023/10/09 06:43:28;;;;;;;6.40;2.77;;;5.40;99.90;;;;;;6154725;23;20202;-77
2023/10/09 06:49:28;;;;;;;5.70;3.10;;;5.30;99.90;;;;;;6129528;23;20179;-80
2023/10/09 06:52:15;;;;;;;6.87;3.00;;;5.50;99.90;;;;;;6129016;23;20194;-80
2023/10/09 06:54:49;;;;;;;7.70;3.50;;;5.50;99.90;;;;;;6153114;23;20166;-82
2023/10/09 06:57:43;;;;;;;8.53;3.37;;;5.60;99.90;;;;;;6149492;23;20623;-78
2023/10/09 07:03:11;;;;;;;8.30;3.33;;;5.60;99.90;;;;;;6128236;23;20258;-78
2023/10/09 07:06:05;;;;;;;6.97;2.97;;;5.70;99.90;;;;;;6153493;23;20185;-78
2023/10/09 07:08:37;;;;;;;7.80;2.97;;;5.80;99.90;;;;;;6153418;23;20196;-78
2023/10/09 07:11:57;;;;;;;6.47;2.97;;;6.10;99.90;;;;;;6127884;23;20599;-80
2023/10/09 07:15:01;;;;;;;5.67;3.03;;;6.10;99.90;;;;;;6153737;23;20166;-80
2023/10/09 07:20:13;;;;;;;10.70;3.03;;;6.20;99.90;;;;;;6128733;23;20171;-80
2023/10/09 07:22:55;;;;;;;7.37;2.77;;;6.20;99.90;;;;;;6128196;23;20197;-79
2023/10/09 07:28:43;;;;;;;5.90;2.87;;;6.10;99.90;;;;;;6093286;23;20236;-80
2023/10/09 07:31:39;;;;;;;7.77;3.17;;;6.10;99.90;;;;;;6093214;23;20216;-77
2023/10/09 07:34:30;;;;;;;10.63;3.87;;;6.20;99.90;;;;;;6067755;23;20177;-78
2023/10/09 07:37:06;;;;;;;6.80;2.93;;;6.80;99.90;;;;;;6092695;23;20311;-78
2023/10/09 07:39:34;;;;;;;8.50;3.17;;;6.60;99.90;;;;;;6092527;23;20201;-78
2023/10/09 07:42:26;;;;;;;9.67;3.40;;;6.90;99.90;;;;;;6093142;23;20232;-78
2023/10/09 07:45:11;;;;;;;5.10;2.83;;;7.00;99.90;;;;;;6093084;23;20232;-80
2023/10/09 07:48:00;;;;;;;6.37;2.83;;;7.40;99.90;;;;;;6046666;23;20182;-80
2023/10/09 07:50:58;;;;;;;6.10;2.93;;;7.50;99.90;;;;;;6092331;23;20562;-80
2023/10/09 07:53:43;;;;;;;5.20;2.80;;;7.60;99.90;;;;;;6092935;23;20169;-81
2023/10/09 07:56:20;;;;;;;5.67;2.80;;;7.90;99.90;;;;;;6069088;23;20212;-79
2023/10/09 07:58:48;;;;;;;5.60;2.97;;;8.20;99.90;;;;;;6092965;23;20668;-80
2023/10/09 08:01:35;;;;;;;5.63;2.70;;;8.40;99.90;;;;;;6096033;23;20189;-76
2023/10/09 08:04:14;;;;;;;6.93;2.87;;;8.60;99.90;;;;;;6069885;23;20564;-80
2023/10/09 08:06:47;;;;;;;5.07;2.70;;;8.80;99.90;;;;;;6154377;23;20195;-78
2023/10/09 08:15:34;;;;;;;7.67;2.83;;;9.80;99.90;;;;;;6035736;23;20203;-78
2023/10/09 08:18:27;;;;;;;9.40;3.00;;;10.10;99.90;;;;;;6034025;23;20187;-79
2023/10/09 08:23:48;;;;;;;6.57;2.60;;;10.00;99.90;;;;;;6035081;23;20171;-77
2023/10/09 08:26:29;;;;;;;5.40;2.60;;;9.90;99.90;;;;;;6011911;23;20209;-81
2023/10/09 08:29:17;;;;;;;5.57;2.63;;;9.80;99.90;;;;;;6009112;23;20207;-78
2023/10/09 08:32:17;;;;;;;6.90;3.20;;;9.80;99.90;;;;;;6010378;23;20181;-78
2023/10/09 08:34:59;;;;;;;10.23;3.10;;;9.70;99.90;;;;;;6012352;23;20223;-78
2023/10/09 08:37:40;;;;;;;4.73;2.60;;;9.40;99.90;;;;;;6034974;23;20233;-78
2023/10/09 08:40:10;;;;;;;6.33;2.10;;;9.50;99.90;;;;;;6034622;23;20227;-79
2023/10/09 08:42:42;;;;;;;5.43;2.27;;;9.40;99.90;;;;;;6010769;23;20179;-75
2023/10/09 08:45:28;;;;;;;7.13;2.50;;;9.70;99.90;;;;;;6033222;23;20206;-77
2023/10/09 08:48:04;;;;;;;6.30;2.40;;;9.60;99.90;;;;;;6034197;23;20300;-83
2023/10/09 08:50:34;;;;;;;4.13;2.33;;;9.80;99.90;;;;;;6098826;23;20172;-80
2023/10/09 08:53:21;;;;;;;5.27;2.17;;;10.10;99.90;;;;;;6130426;23;20178;-77
2023/10/09 08:55:51;;;;;;;7.57;2.30;;;10.10;99.90;;;;;;6156252;23;20254;-81
2023/10/09 08:58:32;;;;;;;5.07;2.40;;;10.10;99.90;;;;;;6156296;23;20658;-79
2023/10/09 09:01:00;;;;;;;4.67;2.30;;;9.80;99.90;;;;;;6155126;23;20239;-77
2023/10/09 09:03:45;;;;;;;5.13;2.10;;;9.80;99.90;;;;;;6155483;23;20534;-75
2023/10/09 09:06:14;;;;;;;4.80;2.20;;;9.80;99.90;;;;;;6156335;23;20219;-81
2023/10/09 09:08:59;;;;;;;7.73;2.37;;;9.90;99.90;;;;;;6155949;23;20666;-77
2023/10/09 09:11:48;;;;;;;5.93;2.27;;;10.00;99.90;;;;;;6154805;23;20164;-80
2023/10/09 09:14:39;;;;;;;5.50;2.07;;;10.20;99.90;;;;;;6131812;23;20168;-77
2023/10/09 09:17:12;;;;;;;4.80;2.20;;;10.30;99.90;;;;;;6130449;23;20179;-76
2023/10/09 09:19:42;;;;;;;7.43;2.50;;;10.30;99.90;;;;;;6156221;23;20195;-80
2023/10/09 09:22:19;;;;;;;5.90;2.30;;;10.80;99.90;;;;;;6131565;23;20211;-80
2023/10/09 09:25:03;;;;;;;5.53;2.30;;;10.90;99.90;;;;;;6154618;23;20663;-78
2023/10/09 09:28:09;;;;;;;5.07;2.10;;;11.40;99.90;;;;;;6129972;23;20176;-78
2023/10/09 09:30:40;;;;;;;5.50;2.20;;;11.40;99.90;;;;;;6155551;23;20168;-79
2023/10/09 09:33:39;;;;;;;5.07;2.10;;;11.40;99.90;;;;;;6129855;23;20164;-80
2023/10/09 09:36:11;;;;;;;4.73;1.93;;;11.70;99.90;;;;;;6154197;23;20192;-76
2023/10/09 09:39:00;;;;;;;4.70;2.23;;;11.80;99.90;;;;;;6155546;23;20203;-78
2023/10/09 09:41:45;;;;;;;3.10;2.00;;;11.90;99.90;;;;;;6132241;23;20218;-80
2023/10/09 09:44:18;;;;;;;6.90;2.30;;;12.20;99.90;;;;;;6129770;23;20179;-81
2023/10/09 09:46:49;;;;;;;3.93;1.70;;;12.10;99.90;;;;;;6153698;23;20160;-81
2023/10/09 09:49:21;;;;;;;3.43;1.80;;;12.20;99.90;;;;;;6156218;23;20251;-81
2023/10/09 09:52:09;;;;;;;5.50;2.00;;;12.10;99.90;;;;;;6129982;23;20663;-81
2023/10/09 09:54:49;;;;;;;4.63;1.80;;;12.30;99.90;;;;;;6131462;23;20208;-78
2023/10/09 09:57:28;;;;;;;4.30;1.87;;;12.00;99.90;;;;;;6155710;23;20288;-80
2023/10/09 10:00:06;;;;;;;5.20;1.60;;;12.00;99.90;;;;;;6154744;23;20203;-79
2023/10/09 10:02:37;;;;;;;3.27;1.90;;;11.60;99.90;;;;;;6153830;23;20670;-80
2023/10/09 10:05:15;;;;;;;4.23;1.90;;;12.20;99.90;;;;;;6153446;23;20210;-80
2023/10/09 10:07:43;;;;;;;6.07;2.07;;;12.20;99.90;;;;;;6153645;23;20202;-80
2023/10/09 10:34:53;;;;;;;;;;;;;;;;;;;;;
2023/10/09 10:38:39;;;;;;;4.43;1.70;;;11.30;99.90;;;;;;6047455;23;20278;-80
2023/10/09 10:46:41;;;;;;;3.30;1.73;;;11.40;99.90;;;;;;5968631;24;20208;-82
2023/10/09 10:55:01;;;;;;;;;;;;;;;;;;;;;
2023/10/09 10:58:09;;;;;;;7.70;2.20;;;10.80;99.90;;;;;;6110080;23;20207;-84
2023/10/09 11:03:35;;;;;;;5.33;2.20;;;11.10;99.90;;;;;;6183752;23;20167;-82
2023/10/09 11:06:15;;;;;;;5.73;2.37;;;11.20;99.90;;;;;;6159339;23;20200;-83
2023/10/09 11:09:08;;;;;;;5.13;1.97;;;11.20;99.90;;;;;;6184811;23;20619;-83
2023/10/09 11:11:47;;;;;;;5.93;2.23;;;11.40;99.90;;;;;;6160942;23;20167;-78
2023/10/09 11:14:23;;;;;;;4.37;2.00;;;11.10;99.90;;;;;;6183432;23;20160;-75
2023/10/09 11:17:03;;;;;;;4.67;2.40;;;10.80;99.90;;;;;;6155917;23;20503;-76
2023/10/09 11:19:44;;;;;;;4.63;2.27;;;10.70;99.90;;;;;;6157092;23;20266;-86
2023/10/09 11:25:12;;;;;;;6.70;2.00;;;10.10;99.90;;;;;;6157323;23;20719;-83
2023/10/09 11:28:27;;;;;;;4.93;1.83;;;10.20;99.90;;;;;;6162073;23;20419;-75
2023/10/09 11:30:55;;;;;;;5.77;2.23;;;10.30;99.90;;;;;;6181805;23;20246;-74
2023/10/09 11:33:45;;;;;;;4.77;2.00;;;10.20;99.90;;;;;;6134387;23;20181;-75
2023/10/09 11:36:31;;;;;;;3.73;1.90;;;10.10;99.90;;;;;;6132572;23;20215;-77
2023/10/09 11:39:13;;;;;;;4.17;1.90;;;10.10;99.90;;;;;;6134039;23;20199;-72
2023/10/09 11:41:44;;;;;;;4.27;1.90;;;10.20;99.90;;;;;;6158701;23;20491;-76
2023/10/09 11:44:44;;;;;;;5.03;2.33;;;10.20;99.90;;;;;;6132045;23;20179;-82
2023/10/09 11:47:23;;;;;;;4.33;2.10;;;10.30;99.90;;;;;;6184881;23;20693;-85
2023/10/09 11:52:35;;;;;;;5.87;2.30;;;10.30;99.90;;;;;;6158183;23;20634;-78
2023/10/09 11:55:06;;;;;;;4.23;2.23;;;10.30;99.90;;;;;;6134402;23;20648;-79
2023/10/09 11:57:47;;;;;;;4.30;2.10;;;10.20;99.90;;;;;;6042034;23;20694;-83
2023/10/09 12:03:50;;;;;;;4.07;2.10;;;10.30;99.90;;;;;;6063928;23;20174;-86
2023/10/09 12:06:32;;;;;;;5.73;2.43;;;10.20;99.90;;;;;;6022056;23;20626;-81
2023/10/09 12:09:05;;;;;;;5.10;2.50;;;10.20;99.90;;;;;;6040037;23;20630;-83
2023/10/09 12:11:34;;;;;;;4.80;2.43;;;10.20;99.90;;;;;;6040841;23;20501;-82
2023/10/09 12:14:07;;;;;;;6.07;2.50;;;10.30;99.90;;;;;;6064132;23;20165;-75
2023/10/09 12:16:44;;;;;;;6.83;2.43;;;10.30;99.90;;;;;;6135770;23;20262;-76
2023/10/09 12:19:13;;;;;;;6.03;2.50;;;10.30;99.90;;;;;;6134898;23;20195;-84
2023/10/09 12:21:42;;;;;;;5.23;2.53;;;10.50;99.90;;;;;;6184353;23;20187;-84
2023/10/09 12:24:11;;;;;;;7.43;2.60;;;10.40;99.90;;;;;;6160440;23;20462;-83
2023/10/09 12:26:42;;;;;;;4.83;2.80;;;10.00;99.90;;;;;;6184293;23;20168;-77
2023/10/09 12:32:10;;;;;;;6.00;2.70;;;10.50;99.90;;;;;;6158003;23;20187;-76
2023/10/09 12:34:42;;;;;;;6.00;2.90;;;10.40;99.90;;;;;;6155527;23;20246;-77
2023/10/09 12:37:09;;;;;;;5.57;2.90;;;10.40;99.90;;;;;;6183678;23;20201;-76
2023/10/09 12:39:40;;;;;;;6.77;2.80;;;10.40;99.90;;;;;;6181806;23;20677;-76
2023/10/09 12:42:08;;;;;;;7.80;2.60;;;10.10;99.90;;;;;;6184030;23;20446;-78
2023/10/09 12:44:44;;;;;;;5.77;2.70;;;9.90;99.90;;;;;;6158626;23;20599;-78
2023/10/09 12:47:15;;;;;;;6.30;3.03;;;9.90;99.90;;;;;;6157926;23;20171;-77
2023/10/09 12:49:49;;;;;;;6.60;3.07;;;9.80;99.90;;;;;;6158206;23;20258;-85
2023/10/09 12:52:17;;;;;;;5.73;3.00;;;9.90;99.90;;;;;;6157991;23;20187;-77
2023/10/09 12:54:47;;;;;;;6.63;2.87;;;10.00;99.90;;;;;;6183698;23;20159;-75
2023/10/09 12:57:25;;;;;;;5.57;3.00;;;10.30;99.90;;;;;;6182813;23;20682;-78
2023/10/09 13:00:00;;;;;;;6.37;2.93;;;9.90;99.90;;;;;;6158536;23;20669;-87
2023/10/09 13:02:43;;;;;;;5.33;2.97;;;10.00;99.90;;;;;;6159148;23;20148;-76
2023/10/09 13:05:25;;;;;;;5.60;2.80;;;9.70;99.90;;;;;;6155084;23;20186;-77
2023/10/09 13:07:57;;;;;;;6.37;2.70;;;9.90;99.90;;;;;;6133431;23;20262;-85
2023/10/09 13:10:37;;;;;;;6.43;3.00;;;9.90;99.90;;;;;;6184575;23;20167;-76
2023/10/09 13:13:11;;;;;;;7.30;3.50;;;10.00;99.90;;;;;;6183220;23;20658;-78
2023/10/09 13:15:44;;;;;;;6.60;3.00;;;10.10;99.90;;;;;;6134937;23;20199;-84
2023/10/09 13:18:15;;;;;;;6.27;3.00;;;10.20;99.90;;;;;;6134046;23;20247;-84
2023/10/09 13:20:54;;;;;;;6.27;2.97;;;10.00;99.90;;;;;;6159099;23;20651;-76
2023/10/09 13:23:34;;;;;;;8.40;3.30;;;9.90;99.90;;;;;;6182813;23;20191;-77
2023/10/09 13:26:17;;;;;;;6.50;3.03;;;9.70;99.90;;;;;;6155142;23;20279;-77
2023/10/09 13:28:55;;;;;;;5.97;3.00;;;9.70;99.90;;;;;;6160076;23;20152;-77
2023/10/09 13:31:27;;;;;;;7.87;3.17;;;9.80;99.90;;;;;;6157441;23;20615;-83
2023/10/09 13:34:14;;;;;;;6.70;3.30;;;9.90;99.90;;;;;;6156769;23;20171;-78
2023/10/09 13:36:52;;;;;;;6.00;3.50;;;9.80;99.90;;;;;;6158131;23;20187;-74
2023/10/09 13:39:38;;;;;;;6.30;2.90;;;9.80;99.90;;;;;;6161065;23;20180;-80
2023/10/09 13:42:07;;;;;;;8.00;3.73;;;9.80;99.90;;;;;;6135706;23;20171;-83
2023/10/09 13:44:36;;;;;;;7.27;3.37;;;9.70;99.90;;;;;;6158513;23;20247;-75
2023/10/09 13:47:19;;;;;;;6.30;3.23;;;9.50;99.90;;;;;;6183812;23;20175;-75
2023/10/09 13:49:57;;;;;;;7.70;3.20;;;9.90;99.90;;;;;;6158326;23;20184;-76
2023/10/09 13:52:39;;;;;;;7.00;3.30;;;9.80;99.90;;;;;;6160297;23;20214;-79
2023/10/09 13:55:15;;;;;;;5.73;3.20;;;9.90;99.90;;;;;;6159009;23;20211;-80
2023/10/09 13:57:46;;;;;;;7.33;3.30;;;9.80;99.90;;;;;;6181962;23;20205;-75
2023/10/09 14:00:32;;;;;;;6.73;3.50;;;9.90;99.90;;;;;;6185130;23;20192;-81
2023/10/09 14:03:12;;;;;;;5.37;2.90;;;10.00;99.90;;;;;;6136050;23;20168;-81
2023/10/09 14:05:58;;;;;;;5.27;2.90;;;10.10;99.90;;;;;;6160278;23;20209;-82
2023/10/09 14:08:28;;;;;;;6.20;2.97;;;10.20;99.90;;;;;;6185702;23;20190;-79
2023/10/09 14:11:24;;;;;;;5.23;2.93;;;10.10;99.90;;;;;;6162869;23;20172;-82
2023/10/09 14:13:53;;;;;;;5.80;2.90;;;10.40;99.90;;;;;;6192429;23;20547;-74
2023/10/09 14:16:37;;;;;;;6.93;2.87;;;9.90;99.90;;;;;;6185338;23;20483;-75
2023/10/09 14:19:12;;;;;;;7.00;3.20;;;10.10;99.90;;;;;;6183803;23;20164;-83
2023/10/09 14:21:44;;;;;;;6.87;3.10;;;10.10;99.90;;;;;;6159789;23;20188;-82
2023/10/09 14:24:18;;;;;;;6.93;3.30;;;10.00;99.90;;;;;;6158743;23;20198;-83
2023/10/09 14:26:57;;;;;;;6.07;3.03;;;10.10;99.90;;;;;;6184281;23;20181;-84
2023/10/09 14:29:26;;;;;;;5.33;2.83;;;10.10;99.90;;;;;;6184978;23;20163;-82
2023/10/09 14:32:00;;;;;;;6.47;3.00;;;9.90;99.90;;;;;;6159159;23;20168;-74
2023/10/09 14:34:32;;;;;;;7.30;3.13;;;9.90;99.90;;;;;;6185547;23;20258;-82
2023/10/09 14:37:14;;;;;;;6.13;3.00;;;9.60;99.90;;;;;;6182372;23;20187;-82
2023/10/09 14:39:48;;;;;;;6.47;3.53;;;9.70;99.90;;;;;;6159267;23;20191;-77
2023/10/09 14:42:20;;;;;;;6.23;2.83;;;9.60;99.90;;;;;;6184008;23;20206;-74
2023/10/09 14:44:49;;;;;;;7.10;3.37;;;9.80;99.90;;;;;;6156822;23;20245;-74
2023/10/09 14:47:18;;;;;;;6.63;3.97;;;9.60;99.90;;;;;;6183605;23;20226;-80
2023/10/09 14:49:49;;;;;;;7.30;3.70;;;9.50;99.90;;;;;;6158801;23;20218;-75
2023/10/09 14:52:18;;;;;;;7.67;3.20;;;9.40;99.90;;;;;;6183877;23;20179;-76
2023/10/09 14:54:50;;;;;;;6.70;3.43;;;9.30;99.90;;;;;;6158707;23;20171;-83
2023/10/09 14:57:18;;;;;;;7.30;3.67;;;9.30;99.90;;;;;;6186031;23;20201;-80
2023/10/09 14:59:46;;;;;;;5.93;3.50;;;9.10;99.90;;;;;;6159562;23;20195;-81
2023/10/09 15:02:14;;;;;;;8.70;3.97;;;9.10;99.90;;;;;;6185989;23;20194;-76
2023/10/09 15:04:43;;;;;;;7.33;3.70;;;9.10;99.90;;;;;;6184312;23;20234;-82
2023/10/09 15:07:15;;;;;;;7.67;3.70;;;9.10;99.90;;;;;;6159088;23;20202;-80
2023/10/09 15:10:09;;;;;;;8.43;4.10;;;9.40;99.90;;;;;;6157391;23;20171;-78
2023/10/09 15:12:42;;;;;;;8.20;4.23;;;9.10;99.90;;;;;;6158549;23;20178;-82
2023/10/09 15:15:13;;;;;;;10.63;4.27;;;9.00;99.90;;;;;;6184320;23;20159;-75
2023/10/09 15:17:47;;;;;;;7.37;4.33;;;8.90;99.90;;;;;;6157743;23;20177;-76
2023/10/09 15:20:17;;;;;;;10.67;4.47;;;8.90;99.90;;;;;;6182985;23;20204;-75
2023/10/09 15:22:46;;;;;;;8.00;4.47;;;8.80;99.90;;;;;;6182703;23;20206;-75
2023/10/09 15:25:19;;;;;;;8.03;4.27;;;8.80;99.90;;;;;;6184120;23;20172;-84
2023/10/09 15:27:48;;;;;;;8.60;3.90;;;8.90;99.90;;;;;;6158157;23;20233;-84
2023/10/09 15:30:17;;;;;;;10.83;4.97;;;8.80;99.90;;;;;;6184561;23;20171;-84
2023/10/09 15:32:45;;;;;;;8.17;4.20;;;8.70;99.90;;;;;;6064353;23;20178;-87
2023/10/09 15:35:14;;;;;;;8.67;4.60;;;8.90;99.90;;;;;;6063703;23;20278;-79
2023/10/09 15:37:47;;;;;;;8.40;4.73;;;8.90;99.90;;;;;;6063935;23;20197;-85
2023/10/09 15:40:17;;;;;;;7.83;4.70;;;9.00;99.90;;;;;;6063432;23;20190;-86
2023/10/09 15:42:49;;;;;;;11.47;4.60;;;8.70;99.90;;;;;;6064655;23;20174;-87
2023/10/09 15:45:31;;;;;;;8.73;4.57;;;8.70;99.90;;;;;;6039372;23;20178;-79
2023/10/09 15:48:04;;;;;;;9.17;4.53;;;8.60;99.90;;;;;;6040992;23;20181;-83
2023/10/09 15:50:34;;;;;;;11.53;4.87;;;8.70;99.90;;;;;;6081925;23;20274;-78
2023/10/09 15:53:06;;;;;;;9.00;5.10;;;8.60;99.90;;;;;;6184396;23;20158;-81
2023/10/09 15:55:38;;;;;;;8.93;4.73;;;8.60;99.90;;;;;;6183919;23;20167;-80
2023/10/09 15:58:08;;;;;;;10.97;5.37;;;8.60;99.90;;;;;;6157284;23;20356;-76
2023/10/09 16:00:37;;;;;;;9.10;4.83;;;8.50;99.90;;;;;;6156979;23;20221;-78
2023/10/09 16:03:09;;;;;;;9.20;4.80;;;8.50;99.90;;;;;;6157378;23;20172;-78
2023/10/09 16:05:40;;;;;;;10.87;5.10;;;8.50;99.90;;;;;;6157463;23;20205;-77
2023/10/09 16:08:09;;;;;;;9.20;4.90;;;8.40;99.90;;;;;;6184219;23;20172;-77
2023/10/09 16:10:37;;;;;;;11.00;5.30;;;8.40;99.90;;;;;;6183541;23;20532;-77
2023/10/09 16:13:09;;;;;;;10.03;5.13;;;8.30;99.90;;;;;;6157717;23;20168;-77
2023/10/09 16:15:42;;;;;;;12.27;5.73;;;8.40;99.90;;;;;;6156790;23;20163;-77
2023/10/09 16:18:11;;;;;;;9.67;5.27;;;8.30;99.90;;;;;;6158238;23;20551;-77
2023/10/09 16:20:39;;;;;;;12.60;6.20;;;8.50;99.90;;;;;;6157837;23;20269;-78
2023/10/09 16:23:09;;;;;;;9.90;5.33;;;8.10;99.90;;;;;;6157364;23;20257;-78
2023/10/09 16:25:40;;;;;;;13.80;6.13;;;8.30;99.90;;;;;;6158289;23;20202;-79